Autryville, NC (28318)

6:22 AM EST on February 10, 2016 (GMT -0500)
Lakewood High School | | Change Station
CLOSE
Current Station
Personal Weather Station
Location: Salemburg, NC
Elevation: 180 ft
Nearby Weather Stations
Active Advisory: Areal Flood Advisory Active Notice: Public Information Statement

Elev 180 ft 34.99 °N, 78.50 °W | Updated 8 seconds ago

Clear
Clear
27.8 °F
Feels Like 28 °F
N
0.0
Wind Variable Wind from WSW
Gusts 0.0 mph

Today
High -- | Low -- °F
--% Chance of Precip.
Yesterday
High -- | Low -- °F
Precip. -- in
Pressure 29.93 in
Visibility 10.0 miles
Clouds Clear
Windchill 28 °F
Dew Point 19 °F
Humidity 70%
Rainfall 0.00 in
Snow Depth Not available.
7:05 AM 5:51 PM
Waxing Crescent, 5% visible
METAR KCTZ 101115Z AUTO 26004KT 10SM CLR M02/M07 A2993 RMK AO2 T10201074
Pressure 29.93 in
Visibility 10.0 miles
Clouds Clear
Windchill 28 °F
Dew Point 19 °F
Humidity 70%
Rainfall 0.00 in
Snow Depth Not available.
7:05 AM 5:51 PM
Waxing Crescent, 5% visible
METAR KCTZ 101115Z AUTO 26004KT 10SM CLR M02/M07 A2993 RMK AO2 T10201074

10-Day Weather Forecast

Almanac

Astronomy

Feb. 10, 2016 Rise Set
Actual Time
Civil Twilight
Nautical Twilight
Astronomical Twilight
Moon
Length of Visible Light
Length of Day
Tomorrow will be .
, % of the Moon is Illuminated

Today's Extremes

State Highs State Lows

Community

WunderPhotos

Upload Photos

1,891,830 photos uploaded!

WunderBlog® & News

Nearby

Air Quality

  Air Quality AQ Index Pollutant
Not available.

Snow Depth

Station Depth Elevation

Earthquake Activity

City Distance Mag. Time & Date
Minimum magnitude displayed is 2.5.

Coastal Water Temperatures

Place Temperature

Stations

Nearby Weather Stations

Station Location Temp. Windchill Dew Point Humidity Wind Precip. Elev Updated Type
                   

Watches & Warnings

Areal Flood Advisory
Issued: 7:11 PM EST Feb. 9, 2016 – National Weather Service

The National Weather Service in Raleigh has issued a

* Flood Advisory for...
central Sampson County in central North Carolina...

* until 700 PM EST Wednesday

* at 704 PM EST... local law enforcement reported a Road closure at
Riley town and Wright bridge Road due to high water from Black
River.

* Flooding will affect mainly rural areas of central Sampson County.


Precautionary/preparedness actions...

Do not attempt to travel across flooded roads. Do not drive
around barricades. Find alternate routes.



Lat... Lon 3484 7834 3480 7834 3480 7838 3484 7838


Sec